sensor_id;sensor_type;location;lat;lon;timestamp;P1;durP1;ratioP1;P2;durP2;ratioP2
76051;SDS011;64751;48.708;9.710;2022-11-15T00:01:16;0.30;;;0.30;;
76051;SDS011;64751;48.708;9.710;2022-11-15T00:04:03;0.95;;;0.70;;
76051;SDS011;64751;48.708;9.710;2022-11-15T00:06:52;0.52;;;0.52;;
76051;SDS011;64751;48.708;9.710;2022-11-15T00:09:39;1.65;;;0.85;;
76051;SDS011;64751;48.708;9.710;2022-11-15T00:12:26;0.80;;;0.80;;
76051;SDS011;64751;48.708;9.710;2022-11-15T00:15:13;0.60;;;0.60;;
76051;SDS011;64751;48.708;9.710;2022-11-15T00:18:00;0.50;;;0.50;;
76051;SDS011;64751;48.708;9.710;2022-11-15T00:20:46;0.43;;;0.43;;
76051;SDS011;64751;48.708;9.710;2022-11-15T00:23:35;0.40;;;0.40;;
76051;SDS011;64751;48.708;9.710;2022-11-15T00:26:22;0.95;;;0.77;;
76051;SDS011;64751;48.708;9.710;2022-11-15T00:29:09;0.82;;;0.60;;
76051;SDS011;64751;48.708;9.710;2022-11-15T00:31:57;0.75;;;0.65;;
76051;SDS011;64751;48.708;9.710;2022-11-15T00:34:44;0.43;;;0.40;;
76051;SDS011;64751;48.708;9.710;2022-11-15T00:37:31;0.52;;;0.50;;
76051;SDS011;64751;48.708;9.710;2022-11-15T00:40:19;0.40;;;0.40;;
76051;SDS011;64751;48.708;9.710;2022-11-15T00:43:06;0.70;;;0.47;;
76051;SDS011;64751;48.708;9.710;2022-11-15T00:45:53;1.10;;;0.65;;
76051;SDS011;64751;48.708;9.710;2022-11-15T00:48:40;0.57;;;0.50;;
76051;SDS011;64751;48.708;9.710;2022-11-15T00:51:26;0.30;;;0.30;;
76051;SDS011;64751;48.708;9.710;2022-11-15T00:54:14;1.05;;;0.80;;
76051;SDS011;64751;48.708;9.710;2022-11-15T00:57:02;0.73;;;0.50;;
76051;SDS011;64751;48.708;9.710;2022-11-15T00:59:49;0.38;;;0.38;;
76051;SDS011;64751;48.708;9.710;2022-11-15T01:02:35;0.50;;;0.47;;
76051;SDS011;64751;48.708;9.710;2022-11-15T01:05:22;0.60;;;0.40;;
76051;SDS011;64751;48.708;9.710;2022-11-15T01:08:11;0.63;;;0.50;;
76051;SDS011;64751;48.708;9.710;2022-11-15T01:11:00;0.60;;;0.60;;
76051;SDS011;64751;48.708;9.710;2022-11-15T01:13:49;0.55;;;0.43;;
76051;SDS011;64751;48.708;9.710;2022-11-15T01:16:35;0.80;;;0.60;;
76051;SDS011;64751;48.708;9.710;2022-11-15T01:19:21;0.73;;;0.50;;
76051;SDS011;64751;48.708;9.710;2022-11-15T01:22:07;1.15;;;0.60;;
76051;SDS011;64751;48.708;9.710;2022-11-15T01:24:53;0.60;;;0.60;;
76051;SDS011;64751;48.708;9.710;2022-11-15T01:27:39;0.60;;;0.60;;
76051;SDS011;64751;48.708;9.710;2022-11-15T01:30:27;0.60;;;0.60;;
76051;SDS011;64751;48.708;9.710;2022-11-15T01:33:13;0.85;;;0.70;;
76051;SDS011;64751;48.708;9.710;2022-11-15T01:36:02;0.63;;;0.63;;
76051;SDS011;64751;48.708;9.710;2022-11-15T01:38:52;0.50;;;0.50;;
76051;SDS011;64751;48.708;9.710;2022-11-15T01:41:39;0.98;;;0.80;;
76051;SDS011;64751;48.708;9.710;2022-11-15T01:44:38;0.70;;;0.70;;
76051;SDS011;64751;48.708;9.710;2022-11-15T01:47:28;0.80;;;0.80;;
76051;SDS011;64751;48.708;9.710;2022-11-15T01:50:17;0.75;;;0.70;;
76051;SDS011;64751;48.708;9.710;2022-11-15T01:53:07;0.73;;;0.73;;
76051;SDS011;64751;48.708;9.710;2022-11-15T01:55:55;0.68;;;0.68;;
76051;SDS011;64751;48.708;9.710;2022-11-15T01:58:41;0.63;;;0.63;;
76051;SDS011;64751;48.708;9.710;2022-11-15T02:01:30;0.60;;;0.60;;
76051;SDS011;64751;48.708;9.710;2022-11-15T02:04:21;0.70;;;0.70;;
76051;SDS011;64751;48.708;9.710;2022-11-15T02:07:12;0.50;;;0.50;;
76051;SDS011;64751;48.708;9.710;2022-11-15T02:10:02;0.80;;;0.60;;
76051;SDS011;64751;48.708;9.710;2022-11-15T02:12:53;0.50;;;0.47;;
76051;SDS011;64751;48.708;9.710;2022-11-15T02:15:42;0.30;;;0.30;;
76051;SDS011;64751;48.708;9.710;2022-11-15T02:18:39;0.63;;;0.60;;
76051;SDS011;64751;48.708;9.710;2022-11-15T02:21:34;0.73;;;0.63;;
76051;SDS011;64751;48.708;9.710;2022-11-15T02:31:16;0.40;;;0.40;;
76051;SDS011;64751;48.708;9.710;2022-11-15T02:34:14;0.50;;;0.50;;
76051;SDS011;64751;48.708;9.710;2022-11-15T02:37:10;0.55;;;0.52;;
76051;SDS011;64751;48.708;9.710;2022-11-15T02:40:04;0.50;;;0.45;;
76051;SDS011;64751;48.708;9.710;2022-11-15T02:42:57;0.60;;;0.60;;
76051;SDS011;64751;48.708;9.710;2022-11-15T02:46:09;0.40;;;0.40;;
76051;SDS011;64751;48.708;9.710;2022-11-15T02:49:04;0.47;;;0.47;;
76051;SDS011;64751;48.708;9.710;2022-11-15T02:51:50;0.65;;;0.60;;
76051;SDS011;64751;48.708;9.710;2022-11-15T02:54:37;0.60;;;0.60;;
76051;SDS011;64751;48.708;9.710;2022-11-15T02:57:27;0.30;;;0.30;;
76051;SDS011;64751;48.708;9.710;2022-11-15T03:00:24;0.65;;;0.65;;
76051;SDS011;64751;48.708;9.710;2022-11-15T03:03:28;0.28;;;0.28;;
76051;SDS011;64751;48.708;9.710;2022-11-15T03:06:28;0.50;;;0.50;;
76051;SDS011;64751;48.708;9.710;2022-11-15T03:09:23;0.85;;;0.40;;
76051;SDS011;64751;48.708;9.710;2022-11-15T03:12:20;0.45;;;0.45;;
76051;SDS011;64751;48.708;9.710;2022-11-15T03:15:15;0.45;;;0.45;;
76051;SDS011;64751;48.708;9.710;2022-11-15T03:18:06;0.20;;;0.20;;
76051;SDS011;64751;48.708;9.710;2022-11-15T03:21:00;0.30;;;0.30;;
76051;SDS011;64751;48.708;9.710;2022-11-15T03:23:50;0.95;;;0.38;;
76051;SDS011;64751;48.708;9.710;2022-11-15T03:26:38;0.25;;;0.25;;
76051;SDS011;64751;48.708;9.710;2022-11-15T03:29:27;0.28;;;0.20;;
76051;SDS011;64751;48.708;9.710;2022-11-15T03:32:19;0.40;;;0.40;;
76051;SDS011;64751;48.708;9.710;2022-11-15T03:37:59;0.40;;;0.40;;
76051;SDS011;64751;48.708;9.710;2022-11-15T03:40:53;0.30;;;0.30;;
76051;SDS011;64751;48.708;9.710;2022-11-15T03:43:45;0.32;;;0.30;;
76051;SDS011;64751;48.708;9.710;2022-11-15T03:46:36;0.20;;;0.20;;
76051;SDS011;64751;48.708;9.710;2022-11-15T03:49:29;1.17;;;0.28;;
76051;SDS011;64751;48.708;9.710;2022-11-15T03:52:18;0.28;;;0.20;;
76051;SDS011;64751;48.708;9.710;2022-11-15T03:55:08;0.30;;;0.30;;
76051;SDS011;64751;48.708;9.710;2022-11-15T03:57:57;0.30;;;0.30;;
76051;SDS011;64751;48.708;9.710;2022-11-15T04:00:45;0.40;;;0.40;;
76051;SDS011;64751;48.708;9.710;2022-11-15T04:03:31;0.50;;;0.50;;
76051;SDS011;64751;48.708;9.710;2022-11-15T04:06:16;0.85;;;0.57;;
76051;SDS011;64751;48.708;9.710;2022-11-15T04:09:02;0.30;;;0.30;;
76051;SDS011;64751;48.708;9.710;2022-11-15T04:11:50;0.32;;;0.28;;
76051;SDS011;64751;48.708;9.710;2022-11-15T04:14:36;1.00;;;0.40;;
76051;SDS011;64751;48.708;9.710;2022-11-15T04:17:43;0.30;;;0.20;;
76051;SDS011;64751;48.708;9.710;2022-11-15T04:20:30;0.65;;;0.32;;
76051;SDS011;64751;48.708;9.710;2022-11-15T04:23:34;0.30;;;0.30;;
76051;SDS011;64751;48.708;9.710;2022-11-15T04:26:38;0.63;;;0.38;;
76051;SDS011;64751;48.708;9.710;2022-11-15T04:29:26;0.30;;;0.30;;
76051;SDS011;64751;48.708;9.710;2022-11-15T04:32:21;0.55;;;0.30;;
76051;SDS011;64751;48.708;9.710;2022-11-15T04:35:07;0.30;;;0.30;;
76051;SDS011;64751;48.708;9.710;2022-11-15T04:37:54;0.38;;;0.38;;
76051;SDS011;64751;48.708;9.710;2022-11-15T04:40:40;0.13;;;0.13;;
76051;SDS011;64751;48.708;9.710;2022-11-15T04:43:26;0.25;;;0.25;;
76051;SDS011;64751;48.708;9.710;2022-11-15T04:46:13;0.30;;;0.30;;
76051;SDS011;64751;48.708;9.710;2022-11-15T04:48:59;0.20;;;0.20;;
76051;SDS011;64751;48.708;9.710;2022-11-15T04:51:46;0.20;;;0.20;;
76051;SDS011;64751;48.708;9.710;2022-11-15T04:54:32;0.30;;;0.30;;
76051;SDS011;64751;48.708;9.710;2022-11-15T04:57:18;0.45;;;0.40;;
76051;SDS011;64751;48.708;9.710;2022-11-15T05:00:05;0.52;;;0.50;;
76051;SDS011;64751;48.708;9.710;2022-11-15T05:02:54;0.50;;;0.50;;
76051;SDS011;64751;48.708;9.710;2022-11-15T05:05:59;0.50;;;0.50;;
76051;SDS011;64751;48.708;9.710;2022-11-15T05:08:45;0.57;;;0.52;;
76051;SDS011;64751;48.708;9.710;2022-11-15T05:11:31;0.50;;;0.50;;
76051;SDS011;64751;48.708;9.710;2022-11-15T05:14:17;0.40;;;0.40;;
76051;SDS011;64751;48.708;9.710;2022-11-15T05:17:03;0.20;;;0.20;;
76051;SDS011;64751;48.708;9.710;2022-11-15T05:19:50;0.40;;;0.40;;
76051;SDS011;64751;48.708;9.710;2022-11-15T05:22:36;0.47;;;0.47;;
76051;SDS011;64751;48.708;9.710;2022-11-15T05:25:23;0.20;;;0.20;;
76051;SDS011;64751;48.708;9.710;2022-11-15T05:28:10;0.30;;;0.30;;
76051;SDS011;64751;48.708;9.710;2022-11-15T05:31:00;0.50;;;0.38;;
76051;SDS011;64751;48.708;9.710;2022-11-15T05:33:46;0.40;;;0.40;;
76051;SDS011;64751;48.708;9.710;2022-11-15T05:36:35;0.47;;;0.47;;
76051;SDS011;64751;48.708;9.710;2022-11-15T05:39:22;0.52;;;0.50;;
76051;SDS011;64751;48.708;9.710;2022-11-15T05:42:11;0.50;;;0.40;;
76051;SDS011;64751;48.708;9.710;2022-11-15T05:44:58;0.75;;;0.50;;
76051;SDS011;64751;48.708;9.710;2022-11-15T05:47:46;0.45;;;0.30;;
76051;SDS011;64751;48.708;9.710;2022-11-15T05:50:35;0.82;;;0.77;;
76051;SDS011;64751;48.708;9.710;2022-11-15T05:53:25;0.45;;;0.35;;
76051;SDS011;64751;48.708;9.710;2022-11-15T05:56:11;0.40;;;0.40;;
76051;SDS011;64751;48.708;9.710;2022-11-15T05:58:58;0.80;;;0.50;;
76051;SDS011;64751;48.708;9.710;2022-11-15T06:01:45;0.45;;;0.45;;
76051;SDS011;64751;48.708;9.710;2022-11-15T06:04:30;0.40;;;0.40;;
76051;SDS011;64751;48.708;9.710;2022-11-15T06:07:17;0.47;;;0.47;;
76051;SDS011;64751;48.708;9.710;2022-11-15T06:10:04;0.95;;;0.60;;
76051;SDS011;64751;48.708;9.710;2022-11-15T06:12:56;0.30;;;0.30;;
76051;SDS011;64751;48.708;9.710;2022-11-15T06:15:42;0.25;;;0.25;;
76051;SDS011;64751;48.708;9.710;2022-11-15T06:18:31;0.65;;;0.63;;
76051;SDS011;64751;48.708;9.710;2022-11-15T06:21:17;0.40;;;0.40;;
76051;SDS011;64751;48.708;9.710;2022-11-15T06:24:04;0.40;;;0.40;;
76051;SDS011;64751;48.708;9.710;2022-11-15T06:26:52;0.60;;;0.60;;
76051;SDS011;64751;48.708;9.710;2022-11-15T06:29:39;0.55;;;0.50;;
76051;SDS011;64751;48.708;9.710;2022-11-15T06:32:25;0.50;;;0.50;;
76051;SDS011;64751;48.708;9.710;2022-11-15T06:35:11;0.40;;;0.40;;
76051;SDS011;64751;48.708;9.710;2022-11-15T06:38:01;0.90;;;0.65;;
76051;SDS011;64751;48.708;9.710;2022-11-15T06:40:49;1.70;;;1.23;;
76051;SDS011;64751;48.708;9.710;2022-11-15T06:43:36;0.70;;;0.70;;
76051;SDS011;64751;48.708;9.710;2022-11-15T06:46:22;0.40;;;0.40;;
76051;SDS011;64751;48.708;9.710;2022-11-15T06:49:10;0.30;;;0.30;;
76051;SDS011;64751;48.708;9.710;2022-11-15T06:51:56;0.85;;;0.65;;
76051;SDS011;64751;48.708;9.710;2022-11-15T06:54:42;0.57;;;0.40;;
76051;SDS011;64751;48.708;9.710;2022-11-15T06:57:28;0.55;;;0.55;;
76051;SDS011;64751;48.708;9.710;2022-11-15T07:00:17;0.35;;;0.35;;
76051;SDS011;64751;48.708;9.710;2022-11-15T07:03:04;0.40;;;0.25;;
76051;SDS011;64751;48.708;9.710;2022-11-15T07:05:50;0.43;;;0.40;;
76051;SDS011;64751;48.708;9.710;2022-11-15T07:08:38;0.35;;;0.30;;
76051;SDS011;64751;48.708;9.710;2022-11-15T07:11:26;0.40;;;0.40;;
76051;SDS011;64751;48.708;9.710;2022-11-15T07:14:12;0.47;;;0.47;;
76051;SDS011;64751;48.708;9.710;2022-11-15T07:16:59;0.65;;;0.60;;
76051;SDS011;64751;48.708;9.710;2022-11-15T07:19:48;0.50;;;0.50;;
76051;SDS011;64751;48.708;9.710;2022-11-15T07:22:34;0.40;;;0.40;;
76051;SDS011;64751;48.708;9.710;2022-11-15T07:25:20;0.50;;;0.50;;
76051;SDS011;64751;48.708;9.710;2022-11-15T07:28:09;0.70;;;0.55;;
76051;SDS011;64751;48.708;9.710;2022-11-15T07:30:55;0.57;;;0.57;;
76051;SDS011;64751;48.708;9.710;2022-11-15T07:33:42;0.50;;;0.50;;
76051;SDS011;64751;48.708;9.710;2022-11-15T07:36:28;0.98;;;0.88;;
76051;SDS011;64751;48.708;9.710;2022-11-15T07:39:14;0.60;;;0.60;;
76051;SDS011;64751;48.708;9.710;2022-11-15T07:42:00;0.93;;;0.80;;
76051;SDS011;64751;48.708;9.710;2022-11-15T07:47:50;1.63;;;0.80;;
76051;SDS011;64751;48.708;9.710;2022-11-15T07:50:41;1.35;;;1.00;;
76051;SDS011;64751;48.708;9.710;2022-11-15T07:53:28;1.30;;;1.20;;
76051;SDS011;64751;48.708;9.710;2022-11-15T07:56:14;1.17;;;1.08;;
76051;SDS011;64751;48.708;9.710;2022-11-15T07:59:00;1.40;;;1.20;;
76051;SDS011;64751;48.708;9.710;2022-11-15T08:01:46;1.40;;;1.20;;
76051;SDS011;64751;48.708;9.710;2022-11-15T08:04:32;1.30;;;1.17;;
76051;SDS011;64751;48.708;9.710;2022-11-15T08:07:20;1.90;;;1.70;;
76051;SDS011;64751;48.708;9.710;2022-11-15T08:10:06;1.85;;;1.60;;
76051;SDS011;64751;48.708;9.710;2022-11-15T08:12:56;2.17;;;1.80;;
76051;SDS011;64751;48.708;9.710;2022-11-15T08:15:44;2.00;;;1.70;;
76051;SDS011;64751;48.708;9.710;2022-11-15T08:18:30;2.20;;;1.95;;
76051;SDS011;64751;48.708;9.710;2022-11-15T08:21:17;1.80;;;1.48;;
76051;SDS011;64751;48.708;9.710;2022-11-15T08:24:07;1.70;;;1.60;;
76051;SDS011;64751;48.708;9.710;2022-11-15T08:26:55;1.70;;;1.55;;
76051;SDS011;64751;48.708;9.710;2022-11-15T08:29:42;1.73;;;1.48;;
76051;SDS011;64751;48.708;9.710;2022-11-15T08:32:28;2.13;;;1.70;;
76051;SDS011;64751;48.708;9.710;2022-11-15T08:35:16;2.03;;;1.63;;
76051;SDS011;64751;48.708;9.710;2022-11-15T08:38:02;2.00;;;1.70;;
76051;SDS011;64751;48.708;9.710;2022-11-15T08:40:50;2.10;;;1.60;;
76051;SDS011;64751;48.708;9.710;2022-11-15T08:43:36;1.90;;;1.70;;
76051;SDS011;64751;48.708;9.710;2022-11-15T08:46:22;1.67;;;1.50;;
76051;SDS011;64751;48.708;9.710;2022-11-15T08:49:08;1.70;;;1.60;;
76051;SDS011;64751;48.708;9.710;2022-11-15T08:51:54;2.08;;;1.70;;
76051;SDS011;64751;48.708;9.710;2022-11-15T08:54:40;1.60;;;1.50;;
76051;SDS011;64751;48.708;9.710;2022-11-15T08:57:29;1.50;;;1.40;;
76051;SDS011;64751;48.708;9.710;2022-11-15T09:00:16;2.10;;;1.80;;
76051;SDS011;64751;48.708;9.710;2022-11-15T09:03:04;1.65;;;1.50;;
76051;SDS011;64751;48.708;9.710;2022-11-15T09:05:54;1.70;;;1.30;;
76051;SDS011;64751;48.708;9.710;2022-11-15T09:08:41;1.48;;;1.38;;
76051;SDS011;64751;48.708;9.710;2022-11-15T09:11:27;1.23;;;1.10;;
76051;SDS011;64751;48.708;9.710;2022-11-15T09:14:14;1.27;;;1.10;;
76051;SDS011;64751;48.708;9.710;2022-11-15T09:17:00;1.33;;;1.20;;
76051;SDS011;64751;48.708;9.710;2022-11-15T09:19:46;1.13;;;1.02;;
76051;SDS011;64751;48.708;9.710;2022-11-15T09:22:33;1.20;;;1.10;;
76051;SDS011;64751;48.708;9.710;2022-11-15T09:25:20;1.50;;;1.10;;
76051;SDS011;64751;48.708;9.710;2022-11-15T09:28:07;1.00;;;0.90;;
76051;SDS011;64751;48.708;9.710;2022-11-15T09:30:56;1.42;;;1.00;;
76051;SDS011;64751;48.708;9.710;2022-11-15T09:33:44;1.52;;;1.23;;
76051;SDS011;64751;48.708;9.710;2022-11-15T09:36:30;0.93;;;0.80;;
76051;SDS011;64751;48.708;9.710;2022-11-15T09:39:16;1.38;;;1.05;;
76051;SDS011;64751;48.708;9.710;2022-11-15T09:42:06;1.17;;;1.08;;
76051;SDS011;64751;48.708;9.710;2022-11-15T09:45:10;0.80;;;0.80;;
76051;SDS011;64751;48.708;9.710;2022-11-15T09:51:28;1.13;;;1.02;;
76051;SDS011;64751;48.708;9.710;2022-11-15T09:54:03;1.05;;;0.95;;
76051;SDS011;64751;48.708;9.710;2022-11-15T09:56:36;1.02;;;0.85;;
76051;SDS011;64751;48.708;9.710;2022-11-15T09:59:18;0.95;;;0.80;;
76051;SDS011;64751;48.708;9.710;2022-11-15T10:01:56;0.90;;;0.82;;
76051;SDS011;64751;48.708;9.710;2022-11-15T10:04:32;1.02;;;0.90;;
76051;SDS011;64751;48.708;9.710;2022-11-15T10:07:02;1.02;;;0.93;;
76051;SDS011;64751;48.708;9.710;2022-11-15T10:09:34;0.85;;;0.75;;
76051;SDS011;64751;48.708;9.710;2022-11-15T10:12:06;0.85;;;0.85;;
76051;SDS011;64751;48.708;9.710;2022-11-15T10:14:35;0.82;;;0.70;;
76051;SDS011;64751;48.708;9.710;2022-11-15T10:17:09;0.80;;;0.80;;
76051;SDS011;64751;48.708;9.710;2022-11-15T10:19:47;1.02;;;0.85;;
76051;SDS011;64751;48.708;9.710;2022-11-15T10:22:26;0.93;;;0.90;;
76051;SDS011;64751;48.708;9.710;2022-11-15T10:30:17;0.65;;;0.65;;
76051;SDS011;64751;48.708;9.710;2022-11-15T10:32:46;0.80;;;0.70;;
76051;SDS011;64751;48.708;9.710;2022-11-15T10:35:16;0.70;;;0.70;;
76051;SDS011;64751;48.708;9.710;2022-11-15T10:37:46;7.03;;;6.50;;
76051;SDS011;64751;48.708;9.710;2022-11-15T10:40:16;2.95;;;2.63;;
76051;SDS011;64751;48.708;9.710;2022-11-15T10:42:46;2.80;;;2.50;;
76051;SDS011;64751;48.708;9.710;2022-11-15T10:45:23;2.53;;;2.10;;
76051;SDS011;64751;48.708;9.710;2022-11-15T10:47:53;1.85;;;1.50;;
76051;SDS011;64751;48.708;9.710;2022-11-15T10:50:42;0.85;;;0.82;;
76051;SDS011;64751;48.708;9.710;2022-11-15T10:53:15;1.10;;;0.85;;
76051;SDS011;64751;48.708;9.710;2022-11-15T10:55:48;0.77;;;0.75;;
76051;SDS011;64751;48.708;9.710;2022-11-15T10:58:21;1.75;;;0.90;;
76051;SDS011;64751;48.708;9.710;2022-11-15T11:01:05;0.93;;;0.70;;
76051;SDS011;64751;48.708;9.710;2022-11-15T11:03:36;0.63;;;0.60;;
76051;SDS011;64751;48.708;9.710;2022-11-15T11:06:07;0.95;;;0.80;;
76051;SDS011;64751;48.708;9.710;2022-11-15T11:08:40;0.60;;;0.60;;
76051;SDS011;64751;48.708;9.710;2022-11-15T11:11:08;0.68;;;0.60;;
76051;SDS011;64751;48.708;9.710;2022-11-15T11:13:36;1.08;;;0.85;;
76051;SDS011;64751;48.708;9.710;2022-11-15T11:16:18;0.60;;;0.60;;
76051;SDS011;64751;48.708;9.710;2022-11-15T11:18:54;0.95;;;0.73;;
76051;SDS011;64751;48.708;9.710;2022-11-15T11:21:32;0.63;;;0.63;;
76051;SDS011;64751;48.708;9.710;2022-11-15T11:24:11;0.60;;;0.60;;
76051;SDS011;64751;48.708;9.710;2022-11-15T11:26:46;0.45;;;0.45;;
76051;SDS011;64751;48.708;9.710;2022-11-15T11:29:26;0.60;;;0.50;;
76051;SDS011;64751;48.708;9.710;2022-11-15T11:32:05;0.52;;;0.50;;
76051;SDS011;64751;48.708;9.710;2022-11-15T11:34:50;0.82;;;0.70;;
76051;SDS011;64751;48.708;9.710;2022-11-15T11:37:28;0.40;;;0.40;;
76051;SDS011;64751;48.708;9.710;2022-11-15T11:40:07;0.22;;;0.22;;
76051;SDS011;64751;48.708;9.710;2022-11-15T11:42:44;0.60;;;0.50;;
76051;SDS011;64751;48.708;9.710;2022-11-15T11:45:24;0.40;;;0.38;;
76051;SDS011;64751;48.708;9.710;2022-11-15T11:48:09;0.80;;;0.60;;
76051;SDS011;64751;48.708;9.710;2022-11-15T11:50:40;0.50;;;0.40;;
76051;SDS011;64751;48.708;9.710;2022-11-15T11:53:11;0.40;;;0.40;;
76051;SDS011;64751;48.708;9.710;2022-11-15T11:55:44;0.38;;;0.38;;
76051;SDS011;64751;48.708;9.710;2022-11-15T11:58:16;0.40;;;0.40;;
76051;SDS011;64751;48.708;9.710;2022-11-15T12:00:47;0.40;;;0.40;;
76051;SDS011;64751;48.708;9.710;2022-11-15T12:03:20;0.40;;;0.40;;
76051;SDS011;64751;48.708;9.710;2022-11-15T12:05:56;0.60;;;0.50;;
76051;SDS011;64751;48.708;9.710;2022-11-15T12:08:31;0.40;;;0.40;;
76051;SDS011;64751;48.708;9.710;2022-11-15T12:11:07;0.80;;;0.80;;
76051;SDS011;64751;48.708;9.710;2022-11-15T12:13:39;0.63;;;0.60;;
76051;SDS011;64751;48.708;9.710;2022-11-15T12:16:11;1.63;;;1.20;;
76051;SDS011;64751;48.708;9.710;2022-11-15T12:18:44;0.70;;;0.60;;
76051;SDS011;64751;48.708;9.710;2022-11-15T12:21:16;0.40;;;0.40;;
76051;SDS011;64751;48.708;9.710;2022-11-15T12:23:50;0.60;;;0.50;;
76051;SDS011;64751;48.708;9.710;2022-11-15T12:26:23;0.40;;;0.40;;
76051;SDS011;64751;48.708;9.710;2022-11-15T12:28:56;0.50;;;0.50;;
76051;SDS011;64751;48.708;9.710;2022-11-15T12:31:28;0.32;;;0.32;;
76051;SDS011;64751;48.708;9.710;2022-11-15T12:34:03;0.50;;;0.50;;
76051;SDS011;64751;48.708;9.710;2022-11-15T12:36:40;0.50;;;0.38;;
76051;SDS011;64751;48.708;9.710;2022-11-15T12:39:10;0.60;;;0.60;;
76051;SDS011;64751;48.708;9.710;2022-11-15T12:41:40;0.55;;;0.52;;
76051;SDS011;64751;48.708;9.710;2022-11-15T12:44:10;0.98;;;0.70;;
76051;SDS011;64751;48.708;9.710;2022-11-15T12:52:18;0.95;;;0.35;;
76051;SDS011;64751;48.708;9.710;2022-11-15T12:57:51;0.35;;;0.35;;
76051;SDS011;64751;48.708;9.710;2022-11-15T13:03:21;0.82;;;0.60;;
76051;SDS011;64751;48.708;9.710;2022-11-15T13:05:52;0.60;;;0.60;;
76051;SDS011;64751;48.708;9.710;2022-11-15T13:11:46;0.50;;;0.50;;
76051;SDS011;64751;48.708;9.710;2022-11-15T13:17:15;0.40;;;0.40;;
76051;SDS011;64751;48.708;9.710;2022-11-15T13:19:53;0.50;;;0.50;;
76051;SDS011;64751;48.708;9.710;2022-11-15T13:22:25;0.90;;;0.60;;
76051;SDS011;64751;48.708;9.710;2022-11-15T13:25:15;0.40;;;0.40;;
76051;SDS011;64751;48.708;9.710;2022-11-15T13:27:46;0.57;;;0.57;;
76051;SDS011;64751;48.708;9.710;2022-11-15T13:30:19;0.55;;;0.50;;
76051;SDS011;64751;48.708;9.710;2022-11-15T13:32:48;0.95;;;0.70;;
76051;SDS011;64751;48.708;9.710;2022-11-15T13:35:19;0.50;;;0.47;;
76051;SDS011;64751;48.708;9.710;2022-11-15T13:37:48;0.35;;;0.35;;
76051;SDS011;64751;48.708;9.710;2022-11-15T13:40:23;0.82;;;0.80;;
76051;SDS011;64751;48.708;9.710;2022-11-15T13:42:53;1.33;;;0.75;;
76051;SDS011;64751;48.708;9.710;2022-11-15T13:45:24;0.80;;;0.63;;
76051;SDS011;64751;48.708;9.710;2022-11-15T13:47:56;1.48;;;0.70;;
76051;SDS011;64751;48.708;9.710;2022-11-15T13:50:26;0.63;;;0.60;;
76051;SDS011;64751;48.708;9.710;2022-11-15T13:52:58;1.10;;;0.60;;
76051;SDS011;64751;48.708;9.710;2022-11-15T13:57:58;0.50;;;0.50;;
76051;SDS011;64751;48.708;9.710;2022-11-15T14:00:36;0.82;;;0.73;;
76051;SDS011;64751;48.708;9.710;2022-11-15T14:03:07;0.88;;;0.63;;
76051;SDS011;64751;48.708;9.710;2022-11-15T14:05:42;0.90;;;0.65;;
76051;SDS011;64751;48.708;9.710;2022-11-15T14:08:21;0.50;;;0.50;;
76051;SDS011;64751;48.708;9.710;2022-11-15T14:11:05;1.13;;;0.80;;
76051;SDS011;64751;48.708;9.710;2022-11-15T14:13:34;1.88;;;0.82;;
76051;SDS011;64751;48.708;9.710;2022-11-15T14:16:14;0.50;;;0.45;;
76051;SDS011;64751;48.708;9.710;2022-11-15T14:18:44;0.82;;;0.65;;
76051;SDS011;64751;48.708;9.710;2022-11-15T14:21:13;0.70;;;0.60;;
76051;SDS011;64751;48.708;9.710;2022-11-15T14:23:41;0.50;;;0.50;;
76051;SDS011;64751;48.708;9.710;2022-11-15T14:26:24;0.60;;;0.60;;
76051;SDS011;64751;48.708;9.710;2022-11-15T14:28:54;0.40;;;0.40;;
76051;SDS011;64751;48.708;9.710;2022-11-15T14:31:23;0.90;;;0.60;;
76051;SDS011;64751;48.708;9.710;2022-11-15T14:33:51;1.05;;;0.70;;
76051;SDS011;64751;48.708;9.710;2022-11-15T14:36:19;1.10;;;0.60;;
76051;SDS011;64751;48.708;9.710;2022-11-15T14:38:47;0.60;;;0.60;;
76051;SDS011;64751;48.708;9.710;2022-11-15T14:41:19;0.82;;;0.55;;
76051;SDS011;64751;48.708;9.710;2022-11-15T14:43:48;0.47;;;0.47;;
76051;SDS011;64751;48.708;9.710;2022-11-15T14:46:16;1.20;;;0.50;;
76051;SDS011;64751;48.708;9.710;2022-11-15T14:48:46;1.83;;;0.70;;
76051;SDS011;64751;48.708;9.710;2022-11-15T14:51:14;0.50;;;0.50;;
76051;SDS011;64751;48.708;9.710;2022-11-15T14:53:43;1.02;;;0.60;;
76051;SDS011;64751;48.708;9.710;2022-11-15T14:56:12;0.40;;;0.40;;
76051;SDS011;64751;48.708;9.710;2022-11-15T14:58:40;0.52;;;0.52;;
76051;SDS011;64751;48.708;9.710;2022-11-15T15:01:10;0.82;;;0.50;;
76051;SDS011;64751;48.708;9.710;2022-11-15T15:03:40;0.55;;;0.50;;
76051;SDS011;64751;48.708;9.710;2022-11-15T15:06:11;0.98;;;0.60;;
76051;SDS011;64751;48.708;9.710;2022-11-15T15:08:39;1.50;;;1.30;;
76051;SDS011;64751;48.708;9.710;2022-11-15T15:11:08;1.70;;;1.30;;
76051;SDS011;64751;48.708;9.710;2022-11-15T15:13:40;2.20;;;1.40;;
76051;SDS011;64751;48.708;9.710;2022-11-15T15:16:08;1.52;;;1.10;;
76051;SDS011;64751;48.708;9.710;2022-11-15T15:18:36;1.00;;;0.80;;
76051;SDS011;64751;48.708;9.710;2022-11-15T15:21:20;0.98;;;0.90;;
76051;SDS011;64751;48.708;9.710;2022-11-15T15:23:50;0.90;;;0.70;;
76051;SDS011;64751;48.708;9.710;2022-11-15T15:26:19;1.52;;;0.70;;
76051;SDS011;64751;48.708;9.710;2022-11-15T15:28:48;1.05;;;0.75;;
76051;SDS011;64751;48.708;9.710;2022-11-15T15:31:17;1.00;;;0.80;;
76051;SDS011;64751;48.708;9.710;2022-11-15T15:33:44;0.80;;;0.63;;
76051;SDS011;64751;48.708;9.710;2022-11-15T15:36:12;0.77;;;0.68;;
76051;SDS011;64751;48.708;9.710;2022-11-15T15:38:45;0.50;;;0.50;;
76051;SDS011;64751;48.708;9.710;2022-11-15T15:41:13;0.93;;;0.68;;
76051;SDS011;64751;48.708;9.710;2022-11-15T15:43:42;1.95;;;1.00;;
76051;SDS011;64751;48.708;9.710;2022-11-15T15:46:09;1.70;;;1.05;;
76051;SDS011;64751;48.708;9.710;2022-11-15T15:48:39;1.50;;;1.20;;
76051;SDS011;64751;48.708;9.710;2022-11-15T15:51:06;2.22;;;1.33;;
76051;SDS011;64751;48.708;9.710;2022-11-15T15:53:34;2.20;;;1.60;;
76051;SDS011;64751;48.708;9.710;2022-11-15T15:56:03;2.42;;;1.63;;
76051;SDS011;64751;48.708;9.710;2022-11-15T16:01:01;2.17;;;1.60;;
76051;SDS011;64751;48.708;9.710;2022-11-15T16:03:29;2.17;;;1.77;;
76051;SDS011;64751;48.708;9.710;2022-11-15T16:05:57;2.42;;;1.85;;
76051;SDS011;64751;48.708;9.710;2022-11-15T16:08:25;1.85;;;1.65;;
76051;SDS011;64751;48.708;9.710;2022-11-15T16:10:55;2.05;;;1.67;;
76051;SDS011;64751;48.708;9.710;2022-11-15T16:13:24;2.08;;;1.88;;
76051;SDS011;64751;48.708;9.710;2022-11-15T16:15:52;2.25;;;2.03;;
76051;SDS011;64751;48.708;9.710;2022-11-15T16:18:21;2.83;;;2.45;;
76051;SDS011;64751;48.708;9.710;2022-11-15T16:20:49;2.33;;;1.98;;
76051;SDS011;64751;48.708;9.710;2022-11-15T16:23:20;2.60;;;2.17;;
76051;SDS011;64751;48.708;9.710;2022-11-15T16:25:50;2.30;;;2.05;;
76051;SDS011;64751;48.708;9.710;2022-11-15T16:28:21;3.13;;;2.00;;
76051;SDS011;64751;48.708;9.710;2022-11-15T16:30:59;2.15;;;1.60;;
76051;SDS011;64751;48.708;9.710;2022-11-15T16:33:27;1.60;;;1.50;;
76051;SDS011;64751;48.708;9.710;2022-11-15T16:35:55;1.90;;;1.70;;
76051;SDS011;64751;48.708;9.710;2022-11-15T16:38:23;2.20;;;1.90;;
76051;SDS011;64751;48.708;9.710;2022-11-15T16:40:50;1.92;;;1.70;;
76051;SDS011;64751;48.708;9.710;2022-11-15T16:43:18;3.30;;;2.25;;
76051;SDS011;64751;48.708;9.710;2022-11-15T16:45:46;2.08;;;1.88;;
76051;SDS011;64751;48.708;9.710;2022-11-15T16:48:19;3.10;;;2.25;;
76051;SDS011;64751;48.708;9.710;2022-11-15T16:50:50;3.35;;;2.22;;
76051;SDS011;64751;48.708;9.710;2022-11-15T16:53:21;2.00;;;1.55;;
76051;SDS011;64751;48.708;9.710;2022-11-15T16:55:49;2.65;;;1.98;;
76051;SDS011;64751;48.708;9.710;2022-11-15T16:58:16;2.13;;;1.85;;